createdAt,value
2022-08-11T00:02:04.007Z,17.60
2022-08-11T00:04:37.215Z,17.60
2022-08-11T00:07:08.541Z,17.60
2022-08-11T00:09:41.767Z,17.60
2022-08-11T00:12:18.996Z,17.60
2022-08-11T00:14:57.700Z,17.60
2022-08-11T00:17:29.365Z,17.60
2022-08-11T00:20:14.071Z,17.50
2022-08-11T00:22:46.429Z,17.50
2022-08-11T00:25:22.930Z,17.40
2022-08-11T00:27:55.277Z,17.40
2022-08-11T00:30:24.619Z,17.40
2022-08-11T00:32:58.837Z,17.40
2022-08-11T00:35:54.679Z,17.30
2022-08-11T00:38:29.202Z,17.30
2022-08-11T00:41:34.022Z,17.30
2022-08-11T00:44:22.123Z,17.30
2022-08-11T00:47:37.795Z,17.20
2022-08-11T00:50:21.914Z,17.10
2022-08-11T00:53:26.510Z,17.10
2022-08-11T00:55:56.243Z,17.10
2022-08-11T00:58:40.166Z,17.20
2022-08-11T01:01:10.702Z,17.20
2022-08-11T01:04:04.536Z,17.10
2022-08-11T01:08:00.446Z,17.00
2022-08-11T01:10:39.328Z,16.90
2022-08-11T01:13:20.079Z,16.90
2022-08-11T01:16:14.200Z,16.70
2022-08-11T01:19:22.100Z,16.70
2022-08-11T01:22:08.107Z,16.80
2022-08-11T01:25:08.934Z,16.80
2022-08-11T01:27:52.246Z,16.80
2022-08-11T01:30:19.611Z,16.70
2022-08-11T01:33:03.685Z,16.70
2022-08-11T01:35:55.312Z,16.70
2022-08-11T01:38:49.035Z,16.80
2022-08-11T01:42:05.929Z,16.80
2022-08-11T01:44:58.843Z,16.80
2022-08-11T01:47:54.279Z,16.80
2022-08-11T01:50:35.650Z,16.70
2022-08-11T01:53:08.742Z,16.70
2022-08-11T01:55:55.224Z,16.80
2022-08-11T01:58:43.621Z,16.70
2022-08-11T02:01:40.848Z,16.70
2022-08-11T02:04:37.916Z,16.60
2022-08-11T02:07:27.516Z,16.60
2022-08-11T02:10:50.492Z,16.50
2022-08-11T02:13:37.290Z,16.40
2022-08-11T02:16:22.994Z,16.40
2022-08-11T02:19:23.447Z,16.40
2022-08-11T02:22:37.356Z,16.40
2022-08-11T02:25:17.719Z,16.30
2022-08-11T02:27:53.035Z,16.30
2022-08-11T02:30:26.077Z,16.30
2022-08-11T02:33:24.039Z,16.30
2022-08-11T02:36:04.750Z,16.30
2022-08-11T02:39:03.597Z,16.30
2022-08-11T02:42:32.817Z,16.20
2022-08-11T02:45:37.026Z,16.20
2022-08-11T02:48:58.331Z,16.10
2022-08-11T02:51:40.737Z,16.10
2022-08-11T02:54:07.830Z,16.10
2022-08-11T02:57:12.666Z,16.10
2022-08-11T03:00:10.298Z,16.10
2022-08-11T03:03:01.150Z,16.10
2022-08-11T03:05:42.053Z,16.10
2022-08-11T03:08:52.548Z,16.10
2022-08-11T03:11:57.315Z,16.10
2022-08-11T03:15:05.260Z,16.00
2022-08-11T03:17:41.855Z,16.10
2022-08-11T03:20:37.968Z,16.10
2022-08-11T03:23:31.397Z,15.90
2022-08-11T03:26:15.742Z,15.90
2022-08-11T03:29:06.340Z,15.90
2022-08-11T03:31:51.804Z,15.90
2022-08-11T03:34:26.990Z,15.90
2022-08-11T03:37:45.740Z,15.80
2022-08-11T03:40:41.419Z,15.80
2022-08-11T03:43:26.818Z,15.70
2022-08-11T03:46:25.458Z,15.70
2022-08-11T03:49:30.603Z,15.70
2022-08-11T03:52:12.270Z,15.80
2022-08-11T03:55:08.723Z,15.90
2022-08-11T03:57:54.678Z,15.80
2022-08-11T04:00:59.011Z,15.90
2022-08-11T04:03:53.198Z,16.00
2022-08-11T04:06:54.085Z,16.00
2022-08-11T04:09:48.314Z,16.10
2022-08-11T04:12:36.667Z,16.20
2022-08-11T04:15:43.240Z,16.40
2022-08-11T04:18:28.133Z,16.50
2022-08-11T04:21:35.190Z,16.70
2022-08-11T04:24:36.438Z,16.90
2022-08-11T04:27:21.207Z,17.00
2022-08-11T04:30:03.668Z,17.20
2022-08-11T04:32:52.634Z,17.30
2022-08-11T04:35:47.296Z,17.30
2022-08-11T04:38:44.650Z,17.40
2022-08-11T04:42:06.404Z,17.50
2022-08-11T04:44:57.290Z,17.60
2022-08-11T04:48:37.415Z,17.60
2022-08-11T04:51:41.913Z,17.70
2022-08-11T04:54:44.636Z,17.70
2022-08-11T04:57:55.796Z,17.70
2022-08-11T05:00:49.597Z,17.80
2022-08-11T05:03:58.096Z,17.80
2022-08-11T05:06:57.848Z,17.90
2022-08-11T05:10:03.523Z,18.00
2022-08-11T05:12:53.301Z,18.00
2022-08-11T05:16:02.468Z,18.10
2022-08-11T05:18:52.164Z,18.20
2022-08-11T05:21:43.282Z,18.20
2022-08-11T05:24:40.943Z,18.20
2022-08-11T05:27:32.865Z,18.40
2022-08-11T05:30:23.829Z,18.50
2022-08-11T05:33:16.266Z,18.60
2022-08-11T05:36:02.532Z,18.60
2022-08-11T05:38:53.408Z,18.70
2022-08-11T05:41:47.710Z,18.80
2022-08-11T05:44:40.442Z,18.80
2022-08-11T05:47:44.233Z,18.90
2022-08-11T05:50:35.009Z,19.00
2022-08-11T05:53:39.450Z,19.10
2022-08-11T05:56:22.024Z,19.10
2022-08-11T05:58:57.485Z,19.20
2022-08-11T06:01:27.665Z,19.30
2022-08-11T06:04:16.218Z,19.30
2022-08-11T06:07:02.810Z,19.40
2022-08-11T06:10:02.966Z,19.50
2022-08-11T06:12:37.442Z,19.60
2022-08-11T06:15:09.002Z,19.70
2022-08-11T06:17:52.144Z,19.70
2022-08-11T06:20:25.797Z,19.70
2022-08-11T06:23:03.807Z,19.80
2022-08-11T06:25:38.060Z,19.80
2022-08-11T06:28:07.310Z,19.90
2022-08-11T06:30:46.412Z,20.00
2022-08-11T06:33:21.741Z,20.00
2022-08-11T06:36:04.818Z,20.00
2022-08-11T06:38:45.956Z,20.10
2022-08-11T06:41:32.016Z,20.20
2022-08-11T06:44:07.204Z,20.20
2022-08-11T06:46:44.953Z,20.30
2022-08-11T06:49:33.242Z,20.30
2022-08-11T06:52:34.731Z,20.40
2022-08-11T06:55:55.747Z,20.40
2022-08-11T06:58:18.945Z,20.40
2022-08-11T07:00:51.202Z,20.50
2022-08-11T07:03:22.256Z,20.50
2022-08-11T07:05:58.538Z,20.60
2022-08-11T07:08:59.324Z,20.60
2022-08-11T07:12:06.769Z,20.70
2022-08-11T07:15:05.017Z,20.80
2022-08-11T07:17:38.266Z,20.80
2022-08-11T07:20:25.185Z,20.90
2022-08-11T07:23:20.039Z,20.90
2022-08-11T07:26:12.227Z,21.00
2022-08-11T07:28:57.904Z,21.10
2022-08-11T07:31:31.579Z,21.10
2022-08-11T07:34:23.923Z,21.10
2022-08-11T07:36:59.496Z,21.30
2022-08-11T07:39:30.902Z,21.30
2022-08-11T07:42:00.191Z,21.40
2022-08-11T07:44:34.386Z,21.30
2022-08-11T07:47:21.013Z,21.40
2022-08-11T07:50:11.762Z,21.30
2022-08-11T07:52:41.044Z,21.40
2022-08-11T07:55:18.509Z,21.40
2022-08-11T07:58:16.959Z,21.30
2022-08-11T08:01:22.038Z,21.40
2022-08-11T08:04:11.905Z,21.40
2022-08-11T08:06:58.765Z,21.40
2022-08-11T08:09:47.771Z,21.50
2022-08-11T08:12:38.899Z,21.60
2022-08-11T08:15:31.583Z,21.70
2022-08-11T08:18:09.972Z,21.60
2022-08-11T08:20:54.943Z,21.70
2022-08-11T08:23:34.599Z,21.80
2022-08-11T08:26:27.033Z,21.80
2022-08-11T08:29:16.396Z,21.90
2022-08-11T08:31:48.476Z,21.90
2022-08-11T08:34:19.279Z,21.90
2022-08-11T08:36:48.714Z,21.90
2022-08-11T08:39:23.110Z,22.00
2022-08-11T08:41:56.155Z,21.90
2022-08-11T08:44:40.628Z,21.90
2022-08-11T08:47:14.724Z,21.90
2022-08-11T08:50:07.425Z,22.00
2022-08-11T08:52:43.702Z,22.00
2022-08-11T08:55:17.938Z,22.00
2022-08-11T08:57:48.556Z,22.10
2022-08-11T09:00:23.064Z,22.10
2022-08-11T09:02:55.938Z,22.10
2022-08-11T09:05:32.374Z,22.10
2022-08-11T09:08:04.768Z,22.20
2022-08-11T09:10:40.421Z,22.30
2022-08-11T09:13:12.285Z,22.40
2022-08-11T09:15:42.566Z,22.40
2022-08-11T09:18:19.965Z,22.30
2022-08-11T09:20:54.876Z,22.20
2022-08-11T09:26:50.539Z,22.20
2022-08-11T09:29:21.423Z,22.30
2022-08-11T09:31:49.079Z,22.30
2022-08-11T09:34:17.226Z,22.40
2022-08-11T09:37:08.888Z,22.50
2022-08-11T09:39:57.596Z,22.50
2022-08-11T09:42:47.692Z,22.60
2022-08-11T09:45:16.889Z,22.50
2022-08-11T09:47:44.881Z,22.40
2022-08-11T09:50:15.808Z,22.30
2022-08-11T09:53:16.965Z,22.30
2022-08-11T09:55:39.346Z,22.40
2022-08-11T09:58:41.728Z,22.60
2022-08-11T10:01:04.101Z,22.80
2022-08-11T10:03:42.318Z,22.90
2022-08-11T10:06:34.348Z,23.10
2022-08-11T10:09:06.328Z,23.10
2022-08-11T10:11:36.561Z,23.10
2022-08-11T10:14:33.100Z,22.90
2022-08-11T10:17:07.947Z,22.80
2022-08-11T10:19:39.620Z,22.80
2022-08-11T10:22:27.701Z,22.90
2022-08-11T10:25:19.609Z,23.00
2022-08-11T10:28:16.698Z,23.20
2022-08-11T10:31:06.796Z,23.30
2022-08-11T10:34:00.848Z,23.40
2022-08-11T10:36:43.468Z,23.50
2022-08-11T10:39:18.047Z,23.50
2022-08-11T10:42:10.791Z,23.60
2022-08-11T10:44:50.768Z,23.80
2022-08-11T10:47:44.355Z,24.00
2022-08-11T10:50:37.555Z,24.00
2022-08-11T10:53:26.776Z,24.00
2022-08-11T10:56:15.767Z,24.00
2022-08-11T10:58:51.389Z,24.10
2022-08-11T11:01:24.303Z,23.90
2022-08-11T11:04:00.779Z,23.70
2022-08-11T11:07:03.698Z,23.50
2022-08-11T11:09:45.354Z,23.30
2022-08-11T11:12:50.357Z,23.40
2022-08-11T11:15:43.176Z,23.40
2022-08-11T11:18:33.510Z,23.30
2022-08-11T11:21:12.395Z,23.30
2022-08-11T11:24:21.372Z,23.20
2022-08-11T11:27:01.574Z,23.30
2022-08-11T11:29:43.672Z,23.40
2022-08-11T11:32:37.695Z,23.50
2022-08-11T11:35:18.023Z,23.70
2022-08-11T11:38:03.578Z,23.80
2022-08-11T11:40:33.167Z,23.90
2022-08-11T11:43:01.303Z,24.00
2022-08-11T11:45:36.346Z,24.00
2022-08-11T11:48:08.786Z,24.00
2022-08-11T11:50:37.762Z,23.80
2022-08-11T11:53:07.968Z,23.90
2022-08-11T11:55:36.346Z,23.90
2022-08-11T11:58:25.563Z,23.90
2022-08-11T12:01:16.802Z,24.00
2022-08-11T12:03:50.572Z,23.80
2022-08-11T12:06:20.797Z,23.90
2022-08-11T12:08:52.991Z,23.90
2022-08-11T12:11:43.681Z,23.90
2022-08-11T12:14:12.554Z,24.00
2022-08-11T12:16:45.171Z,24.10
2022-08-11T12:19:21.428Z,24.20
2022-08-11T12:22:13.413Z,24.30
2022-08-11T12:25:04.031Z,24.30
2022-08-11T12:27:31.675Z,24.00
2022-08-11T12:30:06.023Z,23.80
2022-08-11T12:32:40.457Z,23.90
2022-08-11T12:35:08.785Z,24.00
2022-08-11T12:37:49.426Z,24.10
2022-08-11T12:41:13.808Z,24.20
2022-08-11T12:43:56.656Z,24.30
2022-08-11T12:46:37.909Z,24.50
2022-08-11T12:49:30.994Z,24.40
2022-08-11T12:52:14.819Z,24.20
2022-08-11T12:55:13.209Z,24.10
2022-08-11T12:58:07.790Z,24.20
2022-08-11T13:00:56.325Z,24.20
2022-08-11T13:03:43.663Z,24.40
2022-08-11T13:06:23.175Z,24.40
2022-08-11T13:09:00.950Z,24.40
2022-08-11T13:11:56.042Z,24.50
2022-08-11T13:14:32.919Z,24.50
2022-08-11T13:17:40.227Z,24.50
2022-08-11T13:20:13.237Z,24.20
2022-08-11T13:22:47.240Z,24.10
2022-08-11T13:25:23.584Z,24.20
2022-08-11T13:27:55.841Z,24.30
2022-08-11T13:30:49.214Z,24.40
2022-08-11T13:33:17.683Z,24.60
2022-08-11T13:35:51.867Z,24.70
2022-08-11T13:38:25.870Z,24.70
2022-08-11T13:40:56.449Z,24.60
2022-08-11T13:43:26.534Z,24.40
2022-08-11T13:46:14.659Z,24.10
2022-08-11T13:48:42.875Z,23.40
2022-08-11T13:51:34.823Z,22.80
2022-08-11T13:54:06.008Z,22.50
2022-08-11T13:56:39.691Z,22.00
2022-08-11T13:59:10.414Z,21.80
2022-08-11T14:02:19.352Z,21.40
2022-08-11T14:05:11.535Z,21.00
2022-08-11T14:08:00.799Z,20.60
2022-08-11T14:10:34.806Z,20.50
2022-08-11T14:13:29.508Z,20.40
2022-08-11T14:16:18.571Z,20.30
2022-08-11T14:18:52.206Z,20.20
2022-08-11T14:21:43.361Z,20.00
2022-08-11T14:24:16.389Z,20.00
2022-08-11T14:26:45.320Z,19.90
2022-08-11T14:29:15.474Z,19.90
2022-08-11T14:32:02.413Z,19.90
2022-08-11T14:34:34.604Z,19.80
2022-08-11T14:37:25.071Z,19.80
2022-08-11T14:40:03.171Z,19.80
2022-08-11T14:42:52.511Z,19.80
2022-08-11T14:45:57.712Z,19.80
2022-08-11T14:48:31.008Z,19.80
2022-08-11T14:51:01.446Z,19.80
2022-08-11T14:53:28.585Z,19.80
2022-08-11T14:56:23.724Z,19.90
2022-08-11T14:58:51.257Z,20.00
2022-08-11T15:01:37.768Z,20.10
2022-08-11T15:04:34.800Z,20.20
2022-08-11T15:06:53.401Z,20.40
2022-08-11T15:09:23.062Z,20.50
2022-08-11T15:12:31.488Z,20.60
2022-08-11T15:15:25.347Z,20.70
2022-08-11T15:17:59.707Z,20.90
2022-08-11T15:20:53.688Z,21.00
2022-08-11T15:23:44.439Z,21.20
2022-08-11T15:26:18.487Z,21.30
2022-08-11T15:29:09.319Z,21.40
2022-08-11T15:31:49.359Z,21.60
2022-08-11T15:34:44.322Z,21.90
2022-08-11T15:37:26.426Z,22.10
2022-08-11T15:40:31.678Z,22.40
2022-08-11T15:43:43.609Z,22.50
2022-08-11T15:46:22.312Z,22.60
2022-08-11T15:48:59.678Z,22.80
2022-08-11T15:51:37.168Z,22.90
2022-08-11T15:54:18.699Z,22.90
2022-08-11T15:56:50.115Z,22.90
2022-08-11T15:59:42.253Z,22.80
2022-08-11T16:02:36.201Z,22.80
2022-08-11T16:05:10.593Z,22.70
2022-08-11T16:07:49.090Z,24.00
2022-08-11T16:10:23.051Z,28.00
2022-08-11T16:16:03.151Z,29.20
2022-08-11T16:18:46.823Z,26.70
2022-08-11T16:21:33.917Z,25.30
2022-08-11T16:24:07.416Z,24.40
2022-08-11T16:27:07.804Z,23.60
2022-08-11T16:29:26.319Z,23.20
2022-08-11T16:32:28.254Z,22.80
2022-08-11T16:35:19.779Z,22.40
2022-08-11T16:38:06.863Z,22.30
2022-08-11T16:40:37.511Z,22.10
2022-08-11T16:43:28.897Z,22.10
2022-08-11T16:46:19.185Z,22.00
2022-08-11T16:48:50.861Z,21.90
2022-08-11T16:51:25.547Z,21.70
2022-08-11T16:54:05.089Z,21.60
2022-08-11T16:56:48.591Z,21.50
2022-08-11T16:59:30.704Z,21.40
2022-08-11T17:02:07.806Z,21.00
2022-08-11T17:05:10.641Z,20.90
2022-08-11T17:07:57.974Z,20.80
2022-08-11T17:11:05.937Z,20.60
2022-08-11T17:13:40.404Z,20.60
2022-08-11T17:16:14.409Z,20.50
2022-08-11T17:19:07.733Z,20.40
2022-08-11T17:21:59.573Z,20.30
2022-08-11T17:24:32.308Z,20.20
2022-08-11T17:27:05.683Z,20.10
2022-08-11T17:29:58.587Z,20.10
2022-08-11T17:33:00.665Z,20.10
2022-08-11T17:35:34.031Z,20.00
2022-08-11T17:38:06.063Z,19.90
2022-08-11T17:41:01.418Z,19.90
2022-08-11T17:43:48.942Z,19.80
2022-08-11T17:46:38.292Z,19.80
2022-08-11T17:49:08.406Z,19.70
2022-08-11T17:51:57.036Z,19.70
2022-08-11T17:54:45.604Z,19.60
2022-08-11T17:57:33.617Z,19.40
2022-08-11T18:00:04.102Z,19.30
2022-08-11T18:03:00.878Z,19.10
2022-08-11T18:05:34.085Z,19.10
2022-08-11T18:08:27.987Z,19.00
2022-08-11T18:11:17.508Z,19.00
2022-08-11T18:14:27.632Z,19.00
2022-08-11T18:17:14.054Z,18.80
2022-08-11T18:20:02.418Z,18.70
2022-08-11T18:22:55.778Z,18.70
2022-08-11T18:25:48.405Z,18.60
2022-08-11T18:28:37.569Z,18.50
2022-08-11T18:31:24.991Z,18.50
2022-08-11T18:34:13.540Z,18.30
2022-08-11T18:37:29.133Z,18.40
2022-08-11T18:40:18.859Z,18.30
2022-08-11T18:43:12.283Z,18.30
2022-08-11T18:46:06.825Z,18.30
2022-08-11T18:48:57.529Z,18.30
2022-08-11T18:51:45.044Z,18.30
2022-08-11T18:54:32.417Z,18.20
2022-08-11T18:57:25.019Z,18.30
2022-08-11T19:00:12.623Z,18.20
2022-08-11T19:03:04.939Z,18.10
2022-08-11T19:06:37.008Z,18.10
2022-08-11T19:09:11.488Z,17.90
2022-08-11T19:12:05.728Z,17.90
2022-08-11T19:14:55.924Z,17.80
2022-08-11T19:17:46.234Z,17.80
2022-08-11T19:20:38.027Z,17.80
2022-08-11T19:23:29.280Z,17.70
2022-08-11T19:26:16.862Z,17.70
2022-08-11T19:29:09.461Z,17.60
2022-08-11T19:32:16.730Z,17.60
2022-08-11T19:35:03.317Z,17.50
2022-08-11T19:37:54.150Z,17.40
2022-08-11T19:40:43.060Z,17.40
2022-08-11T19:43:30.526Z,17.40
2022-08-11T19:46:18.807Z,17.40
2022-08-11T19:49:12.305Z,17.30
2022-08-11T19:52:02.410Z,17.30
2022-08-11T19:54:54.020Z,17.30
2022-08-11T19:57:43.830Z,17.40
2022-08-11T20:00:34.264Z,17.40
2022-08-11T20:03:22.284Z,17.40
2022-08-11T20:06:12.076Z,17.40
2022-08-11T20:09:02.734Z,17.50
2022-08-11T20:11:51.141Z,17.50
2022-08-11T20:14:39.382Z,17.50
2022-08-11T20:17:30.781Z,17.50
2022-08-11T20:20:18.393Z,17.40
2022-08-11T20:23:11.098Z,17.40
2022-08-11T20:26:08.688Z,17.50
2022-08-11T20:29:16.055Z,17.50
2022-08-11T20:32:04.347Z,17.70
2022-08-11T20:34:58.185Z,17.80
2022-08-11T20:37:50.250Z,17.80
2022-08-11T20:40:43.159Z,17.90
2022-08-11T20:44:07.727Z,18.00
2022-08-11T20:46:45.040Z,18.00
2022-08-11T20:49:44.908Z,18.10
2022-08-11T20:52:42.569Z,18.20
2022-08-11T20:55:51.932Z,18.30
2022-08-11T21:01:51.938Z,18.30
2022-08-11T21:04:54.860Z,18.30
2022-08-11T21:07:57.080Z,18.30
2022-08-11T21:10:52.003Z,18.40
2022-08-11T21:13:41.551Z,18.40
2022-08-11T21:16:35.011Z,18.40
2022-08-11T21:20:00.034Z,18.40
2022-08-11T21:22:59.475Z,18.40
2022-08-11T21:25:59.462Z,18.40
2022-08-11T21:28:50.484Z,18.40
2022-08-11T21:31:38.786Z,18.50
2022-08-11T21:34:30.940Z,18.50
2022-08-11T21:37:19.488Z,18.50
2022-08-11T21:40:13.580Z,18.60
2022-08-11T21:43:05.167Z,18.60
2022-08-11T21:45:55.646Z,18.60
2022-08-11T21:48:44.737Z,18.60
2022-08-11T21:51:33.111Z,18.60
2022-08-11T21:54:22.053Z,18.60
2022-08-11T21:57:12.955Z,18.60
2022-08-11T22:00:11.581Z,18.60
2022-08-11T22:03:03.398Z,18.60
2022-08-11T22:05:52.763Z,18.60
2022-08-11T22:08:41.328Z,18.60
2022-08-11T22:11:31.851Z,18.60
2022-08-11T22:14:24.161Z,18.60
2022-08-11T22:17:12.346Z,18.60
2022-08-11T22:20:00.857Z,18.60
2022-08-11T22:22:53.437Z,18.60
2022-08-11T22:25:54.301Z,18.60
2022-08-11T22:28:44.772Z,18.60
2022-08-11T22:31:31.253Z,18.50
2022-08-11T22:34:21.065Z,18.50
2022-08-11T22:37:10.118Z,18.50
2022-08-11T22:40:17.014Z,18.40
2022-08-11T22:43:03.292Z,18.40
2022-08-11T22:45:51.826Z,18.40
2022-08-11T22:48:42.049Z,18.30
2022-08-11T22:51:28.641Z,18.30
2022-08-11T22:54:16.361Z,18.30
2022-08-11T22:57:02.312Z,18.30
2022-08-11T22:59:51.382Z,18.30
2022-08-11T23:02:37.663Z,18.30
2022-08-11T23:05:27.563Z,18.40
2022-08-11T23:08:18.645Z,18.40
2022-08-11T23:11:06.288Z,18.40
2022-08-11T23:13:53.242Z,18.50
2022-08-11T23:16:40.483Z,18.50
2022-08-11T23:20:00.356Z,18.50
2022-08-11T23:22:50.161Z,18.50
2022-08-11T23:25:36.676Z,18.50
2022-08-11T23:28:33.491Z,18.50
2022-08-11T23:31:22.954Z,18.60
2022-08-11T23:35:02.639Z,18.50
2022-08-11T23:37:21.729Z,18.60
2022-08-11T23:40:07.837Z,18.60
2022-08-11T23:42:57.783Z,18.60
2022-08-11T23:45:46.566Z,18.60
2022-08-11T23:48:34.036Z,18.50
2022-08-11T23:51:25.386Z,18.50
2022-08-11T23:54:36.903Z,18.60
2022-08-11T23:57:24.074Z,18.60
